Time;durP1;ratioP1;P1;durP2;ratioP2;P2;SDS_P1;SDS_P2;PMS_P1;PMS_P2;Temp;Humidity;BMP_temperature;BMP_pressure;BME280_temperature;BME280_humidity;BME280_pressure;Samples;Min_cycle;Max_cycle;Signal;HPM_P1;HPM_P2
2023/01/13 00:00:12;;;;;;;2.83;1.27;;;;;;;;;;5065265;28;20016;-59
2023/01/13 00:02:37;;;;;;;1.05;0.88;;;;;;;;;;5065538;28;20494;-59
2023/01/13 00:05:02;;;;;;;1.02;1.02;;;;;;;;;;5066542;28;20020;-61
2023/01/13 00:07:28;;;;;;;3.35;1.10;;;;;;;;;;5065991;28;20070;-61
2023/01/13 00:09:53;;;;;;;1.48;0.82;;;;;;;;;;5064652;28;20095;-61
2023/01/13 00:12:18;;;;;;;1.73;1.05;;;;;;;;;;5065287;28;20201;-61
2023/01/13 00:14:43;;;;;;;2.08;1.08;;;;;;;;;;5065424;28;20454;-61
2023/01/13 00:17:08;;;;;;;3.88;1.13;;;;;;;;;;5066069;28;20112;-61
2023/01/13 00:19:34;;;;;;;2.72;0.88;;;;;;;;;;5066179;28;20474;-61
2023/01/13 00:21:59;;;;;;;1.13;0.95;;;;;;;;;;5066316;28;20513;-60
2023/01/13 00:24:24;;;;;;;3.92;1.55;;;;;;;;;;5061836;28;20016;-60
2023/01/13 00:26:51;;;;;;;1.58;1.17;;;;;;;;;;5066222;28;20491;-59
2023/01/13 00:29:16;;;;;;;3.65;1.10;;;;;;;;;;5064833;28;20047;-61
2023/01/13 00:31:41;;;;;;;3.50;1.20;;;;;;;;;;5066395;28;20036;-59
2023/01/13 00:34:07;;;;;;;3.20;0.98;;;;;;;;;;5065843;28;20028;-61
2023/01/13 00:36:32;;;;;;;3.25;1.20;;;;;;;;;;5060838;28;20139;-60
2023/01/13 00:38:57;;;;;;;3.67;1.20;;;;;;;;;;5065343;28;20032;-60
2023/01/13 00:41:23;;;;;;;3.53;0.82;;;;;;;;;;5064814;28;20077;-60
2023/01/13 00:43:48;;;;;;;2.60;1.00;;;;;;;;;;5064743;28;20036;-60
2023/01/13 00:46:17;;;;;;;1.58;1.10;;;;;;;;;;5065087;28;20108;-59
2023/01/13 00:48:43;;;;;;;1.50;0.80;;;;;;;;;;5065710;28;20032;-59
2023/01/13 00:51:10;;;;;;;1.92;0.85;;;;;;;;;;5065481;28;20020;-60
2023/01/13 00:53:36;;;;;;;2.05;0.80;;;;;;;;;;5066149;28;20032;-60
2023/01/13 00:56:02;;;;;;;1.65;1.17;;;;;;;;;;5064825;28;20376;-60
2023/01/13 00:58:27;;;;;;;3.28;1.00;;;;;;;;;;5061493;28;20117;-60
2023/01/13 01:00:52;;;;;;;2.53;1.30;;;;;;;;;;5065678;28;20028;-59
2023/01/13 01:03:17;;;;;;;3.80;1.88;;;;;;;;;;5063588;28;20033;-59
2023/01/13 01:05:43;;;;;;;3.28;1.00;;;;;;;;;;5065634;28;20020;-60
2023/01/13 01:08:08;;;;;;;1.13;0.85;;;;;;;;;;5065060;28;20074;-60
2023/01/13 01:10:33;;;;;;;2.05;0.80;;;;;;;;;;5064224;28;20082;-60
2023/01/13 01:12:58;;;;;;;0.80;0.80;;;;;;;;;;5065120;28;20070;-59
2023/01/13 01:15:24;;;;;;;1.58;0.95;;;;;;;;;;5065613;28;20062;-59
2023/01/13 01:17:49;;;;;;;1.92;0.90;;;;;;;;;;5063925;28;20506;-60
2023/01/13 01:20:14;;;;;;;1.40;1.25;;;;;;;;;;5064582;28;20052;-59
2023/01/13 01:22:39;;;;;;;1.00;0.80;;;;;;;;;;5065253;28;20036;-59
2023/01/13 01:25:05;;;;;;;3.60;1.10;;;;;;;;;;5065270;28;20501;-60
2023/01/13 01:27:30;;;;;;;0.80;0.80;;;;;;;;;;5064091;28;20490;-59
2023/01/13 01:29:55;;;;;;;2.88;1.25;;;;;;;;;;5064590;28;20027;-60
2023/01/13 01:32:21;;;;;;;2.33;1.00;;;;;;;;;;5064291;28;20020;-59
2023/01/13 01:34:46;;;;;;;2.55;0.95;;;;;;;;;;5061836;28;20025;-60
2023/01/13 01:37:11;;;;;;;2.55;0.80;;;;;;;;;;5063602;28;20029;-59
2023/01/13 01:39:37;;;;;;;2.42;1.10;;;;;;;;;;5064320;28;20032;-60
2023/01/13 01:44:51;;;;;;;1.63;1.05;;;;;;;;;;5060727;28;20047;-60
2023/01/13 01:47:16;;;;;;;2.60;1.10;;;;;;;;;;5063203;28;20013;-60
2023/01/13 01:49:41;;;;;;;2.13;1.15;;;;;;;;;;5063928;28;20146;-60
2023/01/13 01:52:06;;;;;;;7.53;1.13;;;;;;;;;;5063925;28;20106;-60
2023/01/13 01:54:32;;;;;;;1.67;0.82;;;;;;;;;;5064823;28;20119;-60
2023/01/13 01:56:57;;;;;;;2.63;0.82;;;;;;;;;;5063277;28;20070;-60
2023/01/13 01:59:22;;;;;;;3.17;0.90;;;;;;;;;;5063943;28;20029;-60
2023/01/13 02:01:48;;;;;;;1.63;0.70;;;;;;;;;;5061741;28;21019;-59
2023/01/13 02:04:14;;;;;;;2.42;0.90;;;;;;;;;;5062814;28;20078;-60
2023/01/13 02:06:39;;;;;;;0.82;0.60;;;;;;;;;;5059387;28;20044;-60
2023/01/13 02:09:05;;;;;;;1.08;0.75;;;;;;;;;;5064112;28;20065;-59
2023/01/13 02:14:15;;;;;;;2.97;0.90;;;;;;;;;;5063877;28;20028;-60
2023/01/13 02:16:42;;;;;;;1.67;0.77;;;;;;;;;;5061182;28;20025;-59
2023/01/13 02:19:25;;;;;;;3.25;0.77;;;;;;;;;;5062420;28;20095;-59
2023/01/13 02:22:09;;;;;;;0.80;0.80;;;;;;;;;;5061911;28;20088;-59
2023/01/13 02:24:52;;;;;;;1.40;0.70;;;;;;;;;;5064319;28;20028;-61
2023/01/13 02:27:38;;;;;;;3.72;1.23;;;;;;;;;;5063584;28;20036;-60
2023/01/13 02:33:13;;;;;;;0.52;0.52;;;;;;;;;;5053493;28;20111;-60
2023/01/13 02:35:42;;;;;;;1.83;0.75;;;;;;;;;;5060233;28;20027;-60
2023/01/13 02:38:07;;;;;;;1.05;0.60;;;;;;;;;;5062485;28;20111;-60
2023/01/13 02:40:37;;;;;;;0.70;0.70;;;;;;;;;;5061227;28;20040;-60
2023/01/13 02:45:52;;;;;;;1.38;0.70;;;;;;;;;;5061176;28;20097;-60
2023/01/13 02:48:17;;;;;;;1.30;0.73;;;;;;;;;;5059058;28;20525;-60
2023/01/13 02:50:47;;;;;;;2.30;0.90;;;;;;;;;;5063915;28;20048;-60
2023/01/13 02:53:24;;;;;;;3.45;1.25;;;;;;;;;;5062030;28;20020;-60
2023/01/13 02:55:50;;;;;;;1.88;0.60;;;;;;;;;;5060916;28;20032;-60
2023/01/13 02:58:16;;;;;;;0.93;0.70;;;;;;;;;;5063177;28;20027;-60
2023/01/13 03:00:41;;;;;;;5.05;0.90;;;;;;;;;;5062028;28;20039;-60
2023/01/13 03:03:07;;;;;;;1.55;0.57;;;;;;;;;;5061735;28;20039;-60
2023/01/13 03:05:32;;;;;;;1.60;0.80;;;;;;;;;;5063756;28;20528;-60
2023/01/13 03:08:09;;;;;;;1.20;0.43;;;;;;;;;;5062779;28;20386;-60
2023/01/13 03:10:53;;;;;;;0.40;0.40;;;;;;;;;;5058817;28;20160;-60
2023/01/13 03:13:27;;;;;;;2.25;1.00;;;;;;;;;;5063298;28;20104;-60
2023/01/13 03:16:12;;;;;;;1.83;0.68;;;;;;;;;;5061972;28;20025;-60
2023/01/13 03:18:40;;;;;;;0.75;0.45;;;;;;;;;;5060578;28;20024;-60
2023/01/13 03:21:11;;;;;;;0.60;0.60;;;;;;;;;;5063564;28;20038;-60
2023/01/13 03:23:39;;;;;;;1.05;0.52;;;;;;;;;;5060387;28;20039;-60
2023/01/13 03:26:08;;;;;;;0.63;0.60;;;;;;;;;;5063434;28;20028;-60
2023/01/13 03:28:41;;;;;;;1.08;0.80;;;;;;;;;;5061154;28;20102;-59
2023/01/13 03:31:09;;;;;;;1.63;0.65;;;;;;;;;;5060311;28;20029;-59
2023/01/13 03:33:35;;;;;;;0.45;0.45;;;;;;;;;;5063638;28;20032;-59
2023/01/13 03:36:02;;;;;;;1.90;0.60;;;;;;;;;;5060433;28;20083;-59
2023/01/13 03:38:31;;;;;;;1.40;0.30;;;;;;;;;;5061568;28;20063;-59
2023/01/13 03:40:57;;;;;;;0.40;0.40;;;;;;;;;;5059932;28;20475;-59
2023/01/13 03:46:25;;;;;;;1.00;0.60;;;;;;;;;;5062142;28;20036;-59
2023/01/13 03:48:50;;;;;;;0.60;0.57;;;;;;;;;;5056811;28;20028;-59
2023/01/13 03:51:16;;;;;;;2.25;0.70;;;;;;;;;;5065886;28;20021;-59
2023/01/13 03:54:01;;;;;;;0.55;0.50;;;;;;;;;;5066641;28;20051;-59
2023/01/13 03:56:32;;;;;;;1.65;0.57;;;;;;;;;;5062577;28;20024;-59
2023/01/13 03:58:57;;;;;;;2.97;0.70;;;;;;;;;;5066904;28;20047;-60
2023/01/13 04:01:43;;;;;;;4.38;1.10;;;;;;;;;;5058500;28;20079;-59
2023/01/13 04:04:09;;;;;;;1.63;0.73;;;;;;;;;;5063856;28;20042;-59
2023/01/13 04:06:57;;;;;;;1.58;0.80;;;;;;;;;;5067346;28;20506;-59
2023/01/13 04:09:27;;;;;;;2.35;1.00;;;;;;;;;;5058819;28;20126;-59
2023/01/13 04:12:15;;;;;;;2.35;0.90;;;;;;;;;;5065631;28;20462;-59
2023/01/13 04:14:40;;;;;;;4.43;0.95;;;;;;;;;;5061631;28;20628;-59
2023/01/13 04:17:06;;;;;;;3.72;1.15;;;;;;;;;;5064648;28;20592;-59
2023/01/13 04:19:31;;;;;;;6.25;1.40;;;;;;;;;;5066790;28;20107;-59
2023/01/13 04:21:57;;;;;;;5.53;1.20;;;;;;;;;;5064292;28;20434;-59
2023/01/13 04:24:22;;;;;;;4.72;1.48;;;;;;;;;;5066971;28;20030;-59
2023/01/13 04:26:48;;;;;;;7.88;1.33;;;;;;;;;;5066823;28;20013;-60
2023/01/13 04:29:13;;;;;;;5.85;1.35;;;;;;;;;;5066309;28;20032;-59
2023/01/13 04:31:38;;;;;;;4.30;1.33;;;;;;;;;;5061762;28;20441;-59
2023/01/13 04:34:03;;;;;;;5.78;1.50;;;;;;;;;;5064329;28;20059;-59
2023/01/13 04:36:29;;;;;;;3.03;1.20;;;;;;;;;;5062944;28;20024;-59
2023/01/13 04:38:54;;;;;;;7.60;1.20;;;;;;;;;;5063525;28;20020;-59
2023/01/13 04:41:19;;;;;;;1.52;0.90;;;;;;;;;;5060511;28;20025;-59
2023/01/13 04:43:44;;;;;;;6.50;1.40;;;;;;;;;;5061293;28;20020;-59
2023/01/13 04:46:10;;;;;;;5.13;1.40;;;;;;;;;;5064890;28;20533;-59
2023/01/13 04:48:35;;;;;;;2.92;1.00;;;;;;;;;;5065863;28;20543;-59
2023/01/13 04:51:00;;;;;;;9.18;1.45;;;;;;;;;;5061974;28;20111;-59
2023/01/13 04:53:25;;;;;;;6.03;1.15;;;;;;;;;;5066361;28;20489;-59
2023/01/13 04:55:51;;;;;;;4.75;1.10;;;;;;;;;;5063627;28;20016;-59
2023/01/13 04:58:16;;;;;;;3.72;1.10;;;;;;;;;;5066383;28;20048;-59
2023/01/13 05:00:41;;;;;;;5.00;1.40;;;;;;;;;;5065623;28;20035;-59
2023/01/13 05:03:07;;;;;;;4.82;1.65;;;;;;;;;;5065070;28;20028;-59
2023/01/13 05:05:32;;;;;;;7.93;1.08;;;;;;;;;;5064890;28;20020;-59
2023/01/13 05:07:57;;;;;;;7.57;1.42;;;;;;;;;;5065782;28;20102;-59
2023/01/13 05:10:23;;;;;;;4.50;1.02;;;;;;;;;;5065504;28;20390;-59
2023/01/13 05:18:16;;;;;;;7.00;1.40;;;;;;;;;;5061460;28;20081;-59
2023/01/13 05:20:41;;;;;;;6.25;1.27;;;;;;;;;;5063957;28;20024;-59
2023/01/13 05:25:50;;;;;;;6.68;1.30;;;;;;;;;;5061903;28;20047;-60
2023/01/13 05:28:15;;;;;;;4.93;1.60;;;;;;;;;;5064715;28;20016;-60
2023/01/13 05:30:41;;;;;;;7.65;1.60;;;;;;;;;;5065662;28;20608;-60
2023/01/13 05:33:07;;;;;;;10.88;1.58;;;;;;;;;;5064918;28;20075;-60
2023/01/13 05:35:32;;;;;;;6.28;1.40;;;;;;;;;;5065736;28;20044;-59
2023/01/13 05:37:57;;;;;;;7.18;1.70;;;;;;;;;;5065293;28;20032;-60
2023/01/13 05:43:19;;;;;;;8.15;1.38;;;;;;;;;;5061049;28;20437;-60
2023/01/13 05:45:48;;;;;;;3.92;1.50;;;;;;;;;;5063128;28;20060;-59
2023/01/13 05:48:13;;;;;;;5.65;1.40;;;;;;;;;;5064761;28;20025;-59
2023/01/13 05:50:39;;;;;;;5.57;2.03;;;;;;;;;;5063806;28;20394;-59
2023/01/13 05:53:04;;;;;;;6.75;1.40;;;;;;;;;;5065525;28;20063;-59
2023/01/13 05:55:29;;;;;;;2.50;1.30;;;;;;;;;;5064427;28;20073;-60
2023/01/13 05:57:55;;;;;;;5.65;1.27;;;;;;;;;;5063078;28;20019;-60
2023/01/13 06:00:20;;;;;;;9.18;2.78;;;;;;;;;;5059881;28;20379;-60
2023/01/13 06:02:45;;;;;;;5.95;1.60;;;;;;;;;;5061755;28;20039;-60
2023/01/13 06:05:11;;;;;;;4.00;1.20;;;;;;;;;;5064761;28;20047;-60
2023/01/13 06:07:36;;;;;;;6.35;1.70;;;;;;;;;;5064561;28;20736;-59
2023/01/13 06:10:01;;;;;;;6.53;1.67;;;;;;;;;;5064361;28;20028;-59
2023/01/13 06:12:26;;;;;;;3.60;1.40;;;;;;;;;;5062191;28;20020;-60
2023/01/13 06:14:51;;;;;;;6.50;1.60;;;;;;;;;;5060484;28;20468;-60
2023/01/13 06:17:17;;;;;;;5.20;1.30;;;;;;;;;;5064369;28;20485;-61
2023/01/13 06:19:42;;;;;;;6.57;1.70;;;;;;;;;;5060676;28;20614;-60
2023/01/13 06:22:12;;;;;;;7.18;1.15;;;;;;;;;;5063552;28;20429;-60
2023/01/13 06:24:41;;;;;;;8.40;1.50;;;;;;;;;;5063228;28;20562;-60
2023/01/13 06:27:07;;;;;;;5.28;1.10;;;;;;;;;;5061895;28;20066;-60
2023/01/13 06:29:32;;;;;;;9.23;1.48;;;;;;;;;;5061784;28;20442;-59
2023/01/13 06:31:58;;;;;;;4.45;1.20;;;;;;;;;;5060863;28;20077;-59
2023/01/13 06:34:23;;;;;;;8.07;1.45;;;;;;;;;;5064988;28;20020;-62
2023/01/13 06:36:49;;;;;;;3.90;1.33;;;;;;;;;;5063944;28;20058;-59
2023/01/13 06:39:16;;;;;;;1.75;0.88;;;;;;;;;;5042470;28;20024;-60
2023/01/13 06:44:25;;;;;;;3.50;1.35;;;;;;;;;;5056353;28;20035;-59
2023/01/13 06:46:50;;;;;;;4.80;1.88;;;;;;;;;;5063586;28;20013;-59
2023/01/13 06:49:16;;;;;;;5.18;1.23;;;;;;;;;;5061538;28;20025;-60
2023/01/13 06:51:41;;;;;;;6.43;1.35;;;;;;;;;;5061119;28;20655;-60
2023/01/13 06:54:06;;;;;;;6.25;1.17;;;;;;;;;;5060591;28;20511;-60
2023/01/13 06:56:31;;;;;;;4.25;1.30;;;;;;;;;;5062998;28;20501;-60
2023/01/13 06:58:56;;;;;;;6.40;1.08;;;;;;;;;;5063905;28;20143;-60
2023/01/13 07:01:22;;;;;;;5.90;1.35;;;;;;;;;;5063653;28;20470;-60
2023/01/13 07:03:47;;;;;;;6.80;1.50;;;;;;;;;;5064213;28;20763;-60
2023/01/13 07:06:12;;;;;;;5.38;1.90;;;;;;;;;;5055418;28;20017;-61
2023/01/13 07:08:37;;;;;;;4.55;1.52;;;;;;;;;;5063690;28;20136;-58
2023/01/13 07:11:03;;;;;;;5.00;1.10;;;;;;;;;;5063644;28;20042;-61
2023/01/13 07:16:12;;;;;;;6.18;1.38;;;;;;;;;;5062101;28;20454;-60
2023/01/13 07:18:37;;;;;;;6.68;1.23;;;;;;;;;;5043814;28;20028;-61
2023/01/13 07:21:03;;;;;;;5.55;1.50;;;;;;;;;;5060659;28;20020;-60
2023/01/13 07:23:29;;;;;;;16.23;2.03;;;;;;;;;;5061566;28;20149;-59
2023/01/13 07:26:00;;;;;;;7.60;1.30;;;;;;;;;;5062649;28;20024;-59
2023/01/13 07:28:25;;;;;;;3.58;1.35;;;;;;;;;;5067467;28;20406;-59
2023/01/13 07:30:51;;;;;;;3.55;1.27;;;;;;;;;;5067146;28;20503;-59
2023/01/13 07:33:17;;;;;;;4.57;1.48;;;;;;;;;;5066501;28;20437;-59
2023/01/13 07:35:42;;;;;;;6.95;1.92;;;;;;;;;;5067015;28;20074;-61
2023/01/13 07:38:08;;;;;;;7.65;1.35;;;;;;;;;;5067016;28;20105;-60
2023/01/13 07:40:33;;;;;;;5.88;1.42;;;;;;;;;;5064137;28;20542;-60
2023/01/13 07:45:42;;;;;;;6.72;1.50;;;;;;;;;;5065305;28;20035;-60
2023/01/13 07:48:07;;;;;;;5.43;1.50;;;;;;;;;;5066584;28;20028;-59
2023/01/13 07:50:32;;;;;;;3.22;1.65;;;;;;;;;;5066521;28;20094;-59
2023/01/13 07:52:58;;;;;;;6.50;2.33;;;;;;;;;;5067174;28;20043;-60
2023/01/13 07:55:23;;;;;;;6.63;1.80;;;;;;;;;;5061341;28;20024;-59
2023/01/13 07:57:48;;;;;;;12.32;1.70;;;;;;;;;;5064025;28;20020;-61
2023/01/13 08:00:14;;;;;;;6.32;1.48;;;;;;;;;;5064673;28;20025;-60
2023/01/13 08:02:40;;;;;;;4.50;1.50;;;;;;;;;;5065844;28;20498;-59
2023/01/13 08:05:05;;;;;;;15.10;1.90;;;;;;;;;;5061055;28;20070;-59
2023/01/13 08:07:30;;;;;;;7.53;2.13;;;;;;;;;;5064310;28;20139;-59
2023/01/13 08:09:56;;;;;;;6.80;1.85;;;;;;;;;;5066941;28;20135;-60
2023/01/13 08:15:05;;;;;;;6.50;1.75;;;;;;;;;;5059230;28;20109;-60
2023/01/13 08:17:31;;;;;;;8.10;1.60;;;;;;;;;;5064749;28;20618;-60
2023/01/13 08:19:56;;;;;;;9.15;1.50;;;;;;;;;;5063829;28;20368;-60
2023/01/13 08:22:21;;;;;;;13.25;1.90;;;;;;;;;;5062470;28;20032;-60
2023/01/13 08:24:47;;;;;;;6.10;1.73;;;;;;;;;;5064080;28;20028;-60
2023/01/13 08:27:12;;;;;;;4.15;1.48;;;;;;;;;;5060754;28;20020;-60
2023/01/13 08:29:37;;;;;;;3.38;1.45;;;;;;;;;;5062667;28;20024;-60
2023/01/13 08:32:03;;;;;;;6.20;1.65;;;;;;;;;;5063608;28;20024;-60
2023/01/13 08:34:28;;;;;;;10.55;1.88;;;;;;;;;;5065614;28;20043;-59
2023/01/13 08:36:53;;;;;;;11.10;1.95;;;;;;;;;;5065494;28;20359;-59
2023/01/13 08:39:19;;;;;;;10.23;2.10;;;;;;;;;;5057825;28;20039;-59
2023/01/13 08:41:57;;;;;;;11.98;2.13;;;;;;;;;;5059984;28;20034;-59
2023/01/13 08:44:23;;;;;;;9.18;1.63;;;;;;;;;;5062136;28;20425;-59
2023/01/13 08:46:48;;;;;;;12.60;2.15;;;;;;;;;;5063531;28;20032;-59
2023/01/13 08:49:14;;;;;;;18.42;2.08;;;;;;;;;;5058745;28;20024;-59
2023/01/13 08:51:39;;;;;;;11.10;1.83;;;;;;;;;;5062440;28;20107;-59
2023/01/13 08:54:05;;;;;;;13.25;1.90;;;;;;;;;;5065456;28;20020;-59
2023/01/13 08:56:30;;;;;;;13.65;2.40;;;;;;;;;;5063679;28;20364;-61
2023/01/13 08:58:58;;;;;;;10.07;2.47;;;;;;;;;;5058806;28;20095;-59
2023/01/13 09:01:23;;;;;;;14.18;2.47;;;;;;;;;;5059862;28;20107;-59
2023/01/13 09:03:49;;;;;;;4.78;1.70;;;;;;;;;;5063360;28;20174;-59
2023/01/13 09:06:14;;;;;;;14.60;2.35;;;;;;;;;;5065121;28;20031;-59
2023/01/13 09:08:39;;;;;;;10.48;2.33;;;;;;;;;;5063851;28;20020;-59
2023/01/13 09:13:10;;;;;;;14.75;3.15;;;;;;;;;;5065258;28;20535;-59
2023/01/13 09:13:50;;;;;;;12.40;2.67;;;;;;;;;;5062553;28;20036;-59
2023/01/13 09:16:15;;;;;;;74.95;27.77;;;;;;;;;;5057645;28;20395;-61
2023/01/13 09:18:41;;;;;;;25.42;5.28;;;;;;;;;;5061777;28;20051;-60
2023/01/13 09:21:08;;;;;;;19.15;3.80;;;;;;;;;;5062866;28;20529;-60
2023/01/13 09:23:33;;;;;;;16.20;2.40;;;;;;;;;;5060535;28;20131;-61
2023/01/13 09:25:59;;;;;;;21.85;4.57;;;;;;;;;;5062843;28;20107;-60
2023/01/13 09:28:24;;;;;;;23.77;4.72;;;;;;;;;;5065108;28;20044;-60
2023/01/13 09:30:49;;;;;;;25.45;9.05;;;;;;;;;;5063922;28;20689;-59
2023/01/13 09:35:59;;;;;;;41.72;14.35;;;;;;;;;;5062287;28;20547;-58
2023/01/13 09:38:25;;;;;;;21.63;8.30;;;;;;;;;;5063538;28;20488;-58
2023/01/13 09:40:50;;;;;;;12.88;4.20;;;;;;;;;;5063412;28;20062;-59
2023/01/13 09:46:05;;;;;;;28.27;3.38;;;;;;;;;;5061784;28;20125;-59
2023/01/13 09:48:31;;;;;;;19.67;3.13;;;;;;;;;;5055907;28;20545;-60
2023/01/13 09:50:59;;;;;;;23.13;3.95;;;;;;;;;;5059228;28;20435;-59
2023/01/13 09:53:28;;;;;;;17.77;4.22;;;;;;;;;;5062148;28;20060;-60
2023/01/13 09:55:53;;;;;;;17.63;5.32;;;;;;;;;;5062449;28;20086;-60
2023/01/13 09:58:19;;;;;;;20.77;4.68;;;;;;;;;;5058461;28;20100;-60
2023/01/13 10:00:50;;;;;;;12.40;2.42;;;;;;;;;;5060982;28;20017;-60
2023/01/13 10:03:25;;;;;;;10.82;2.60;;;;;;;;;;5062457;28;20043;-60
2023/01/13 10:06:03;;;;;;;26.45;3.45;;;;;;;;;;5064409;28;20021;-60
2023/01/13 10:08:32;;;;;;;9.85;2.50;;;;;;;;;;5061905;28;20517;-60
2023/01/13 10:13:45;;;;;;;9.23;2.13;;;;;;;;;;5062193;28;20043;-59
2023/01/13 10:16:10;;;;;;;17.10;2.58;;;;;;;;;;5077970;28;20123;-59
2023/01/13 10:18:54;;;;;;;12.27;2.08;;;;;;;;;;5061260;28;20028;-59
2023/01/13 10:21:19;;;;;;;15.23;1.80;;;;;;;;;;5059402;28;20052;-60
2023/01/13 10:23:49;;;;;;;17.08;2.38;;;;;;;;;;5056213;28;20066;-59
2023/01/13 10:26:19;;;;;;;9.40;2.38;;;;;;;;;;5063325;28;20082;-59
2023/01/13 10:28:53;;;;;;;12.43;2.38;;;;;;;;;;5062810;28;20612;-59
2023/01/13 10:31:19;;;;;;;17.27;2.53;;;;;;;;;;5060028;28;20025;-60
2023/01/13 10:33:44;;;;;;;18.27;2.55;;;;;;;;;;5060115;28;20036;-59
2023/01/13 10:36:13;;;;;;;23.48;2.83;;;;;;;;;;5063200;28;20078;-59
2023/01/13 10:38:45;;;;;;;20.85;3.05;;;;;;;;;;5062201;28;20031;-59
2023/01/13 10:41:14;;;;;;;17.65;2.78;;;;;;;;;;5061158;28;20513;-60
2023/01/13 10:43:41;;;;;;;20.67;2.45;;;;;;;;;;5064079;28;20032;-60
2023/01/13 10:46:09;;;;;;;18.15;2.40;;;;;;;;;;5056882;28;20083;-66
2023/01/13 10:48:34;;;;;;;16.63;2.45;;;;;;;;;;5055559;28;20024;-60
2023/01/13 10:51:20;;;;;;;18.05;2.10;;;;;;;;;;5059446;28;20548;-60
2023/01/13 10:53:48;;;;;;;19.92;2.50;;;;;;;;;;5060380;28;20111;-60
2023/01/13 10:56:17;;;;;;;17.67;2.35;;;;;;;;;;5062235;28;20035;-60
2023/01/13 10:58:42;;;;;;;13.88;2.40;;;;;;;;;;5055601;28;20038;-60
2023/01/13 11:01:09;;;;;;;19.58;2.65;;;;;;;;;;5060263;28;20031;-60
2023/01/13 11:03:35;;;;;;;13.68;2.58;;;;;;;;;;5060191;28;20119;-60
2023/01/13 11:06:01;;;;;;;21.60;2.70;;;;;;;;;;5057860;28;20426;-60
2023/01/13 11:08:27;;;;;;;23.05;2.97;;;;;;;;;;5060969;28;20049;-60
2023/01/13 11:10:53;;;;;;;21.90;3.08;;;;;;;;;;5063128;28;20423;-60
2023/01/13 11:13:31;;;;;;;18.58;2.58;;;;;;;;;;5061815;28;20032;-60
2023/01/13 11:15:59;;;;;;;22.85;3.33;;;;;;;;;;5059726;28;20028;-61
2023/01/13 11:18:24;;;;;;;13.75;2.45;;;;;;;;;;5063434;28;20044;-60
2023/01/13 11:20:50;;;;;;;21.65;3.05;;;;;;;;;;5064005;28;20067;-60
2023/01/13 11:23:20;;;;;;;22.70;3.05;;;;;;;;;;5061334;28;20131;-60
2023/01/13 11:25:46;;;;;;;19.33;2.67;;;;;;;;;;5063386;28;20097;-60
2023/01/13 11:28:21;;;;;;;17.58;2.42;;;;;;;;;;5058572;28;20032;-60
2023/01/13 11:30:52;;;;;;;27.27;3.08;;;;;;;;;;5062729;28;20426;-60
2023/01/13 11:33:24;;;;;;;19.42;2.47;;;;;;;;;;5059039;28;20111;-59
2023/01/13 11:35:57;;;;;;;21.63;2.83;;;;;;;;;;5063084;28;20024;-59
2023/01/13 11:38:34;;;;;;;30.00;3.42;;;;;;;;;;5062167;28;20048;-59
2023/01/13 11:41:01;;;;;;;18.98;2.65;;;;;;;;;;5057913;28;20763;-60
2023/01/13 11:43:28;;;;;;;14.38;2.55;;;;;;;;;;5059636;28;20040;-60
2023/01/13 11:45:57;;;;;;;41.50;3.05;;;;;;;;;;5058334;28;20502;-59
2023/01/13 11:48:25;;;;;;;19.23;3.05;;;;;;;;;;5054000;28;20027;-59
2023/01/13 11:51:11;;;;;;;24.40;2.70;;;;;;;;;;5058056;28;20110;-59
2023/01/13 11:53:39;;;;;;;27.80;2.97;;;;;;;;;;5056549;28;20029;-59
2023/01/13 11:56:10;;;;;;;20.50;2.80;;;;;;;;;;5058899;28;20106;-59
2023/01/13 11:58:35;;;;;;;19.95;3.08;;;;;;;;;;5057689;28;20850;-59
2023/01/13 12:01:00;;;;;;;21.00;2.88;;;;;;;;;;5057019;28;20029;-59
2023/01/13 12:04:03;;;;;;;17.67;2.72;;;;;;;;;;5060634;28;20062;-59
2023/01/13 12:06:35;;;;;;;28.65;3.20;;;;;;;;;;5056658;28;20071;-60
2023/01/13 12:09:16;;;;;;;13.50;2.63;;;;;;;;;;5027436;28;20053;-60
2023/01/13 12:14:44;;;;;;;34.70;3.25;;;;;;;;;;5027425;28;20078;-59
2023/01/13 12:17:39;;;;;;;21.40;2.88;;;;;;;;;;5038024;28;20135;-59
2023/01/13 12:20:39;;;;;;;15.98;3.80;;;;;;;;;;5020729;28;20045;-60
2023/01/13 12:23:06;;;;;;;8.88;1.70;;;;;;;;;;5005037;28;20073;-60
2023/01/13 12:25:38;;;;;;;13.18;2.22;;;;;;;;;;5046563;28;20030;-60
2023/01/13 12:28:06;;;;;;;5.63;1.40;;;;;;;;;;5024850;28;20025;-59
2023/01/13 12:30:45;;;;;;;9.93;1.35;;;;;;;;;;5024868;28;20395;-59
2023/01/13 12:33:28;;;;;;;7.45;1.30;;;;;;;;;;5039922;28;20039;-59
2023/01/13 12:36:03;;;;;;;12.10;1.98;;;;;;;;;;5025760;28;20475;-59
2023/01/13 12:38:35;;;;;;;5.07;1.60;;;;;;;;;;5024085;28;20029;-59
2023/01/13 12:41:12;;;;;;;7.75;1.70;;;;;;;;;;5024410;28;20025;-59
2023/01/13 12:46:22;;;;;;;6.80;1.83;;;;;;;;;;5038795;28;20071;-59
2023/01/13 12:48:49;;;;;;;11.63;1.90;;;;;;;;;;5026311;28;20057;-59
2023/01/13 12:51:27;;;;;;;13.13;1.80;;;;;;;;;;5025138;28;20056;-59
2023/01/13 12:53:53;;;;;;;12.48;2.10;;;;;;;;;;5022134;28;20029;-59
2023/01/13 12:56:18;;;;;;;10.02;2.30;;;;;;;;;;5021265;28;20029;-59
2023/01/13 12:58:44;;;;;;;9.75;1.52;;;;;;;;;;5022556;28;20447;-59
2023/01/13 13:01:10;;;;;;;13.40;2.42;;;;;;;;;;5020701;28;20564;-59
2023/01/13 13:03:35;;;;;;;12.15;1.98;;;;;;;;;;5020622;28;20034;-59
2023/01/13 13:06:02;;;;;;;9.15;1.92;;;;;;;;;;5020188;28;20258;-59
2023/01/13 13:08:37;;;;;;;9.23;2.35;;;;;;;;;;5057156;28;20359;-59
2023/01/13 13:11:05;;;;;;;6.32;1.70;;;;;;;;;;5061548;28;20103;-59
2023/01/13 13:13:46;;;;;;;15.27;2.22;;;;;;;;;;5060510;28;20028;-59
2023/01/13 13:16:24;;;;;;;11.05;2.65;;;;;;;;;;5060452;28;20024;-61
2023/01/13 13:18:49;;;;;;;11.65;1.85;;;;;;;;;;5062255;28;20757;-60
2023/01/13 13:21:14;;;;;;;16.98;2.33;;;;;;;;;;5062459;28;20074;-60
2023/01/13 13:23:44;;;;;;;9.88;2.47;;;;;;;;;;5060379;28;20032;-60
2023/01/13 13:26:23;;;;;;;11.65;2.35;;;;;;;;;;5062840;28;20055;-60
2023/01/13 13:29:07;;;;;;;11.82;1.85;;;;;;;;;;5044311;28;20032;-58
2023/01/13 13:31:32;;;;;;;10.48;2.13;;;;;;;;;;5058835;28;20348;-60
2023/01/13 13:34:07;;;;;;;12.27;1.95;;;;;;;;;;5062652;28;20360;-60
2023/01/13 13:36:38;;;;;;;16.25;2.30;;;;;;;;;;5058102;28;20024;-59
2023/01/13 13:47:22;;;;;;;16.17;2.45;;;;;;;;;;5060893;28;20082;-60
2023/01/13 13:49:51;;;;;;;14.77;2.47;;;;;;;;;;5056263;28;20310;-59
2023/01/13 13:52:16;;;;;;;10.93;2.20;;;;;;;;;;5057270;28;20223;-59
2023/01/13 13:54:43;;;;;;;14.27;2.28;;;;;;;;;;5057492;28;20020;-59
2023/01/13 13:57:13;;;;;;;13.65;2.67;;;;;;;;;;5059187;28;20501;-59
2023/01/13 13:59:38;;;;;;;13.73;2.45;;;;;;;;;;5061270;28;20451;-59
2023/01/13 14:02:10;;;;;;;9.73;2.55;;;;;;;;;;5060127;28;20032;-59
2023/01/13 14:04:37;;;;;;;16.60;2.60;;;;;;;;;;5057398;28;20075;-60
2023/01/13 14:07:23;;;;;;;18.20;2.45;;;;;;;;;;5049797;28;20053;-59
2023/01/13 14:09:49;;;;;;;12.27;2.55;;;;;;;;;;5061101;28;20036;-60
2023/01/13 14:12:19;;;;;;;15.68;2.45;;;;;;;;;;5061088;28;20043;-59
2023/01/13 14:14:44;;;;;;;22.60;2.90;;;;;;;;;;5062790;28;20487;-60
2023/01/13 14:17:21;;;;;;;19.77;2.67;;;;;;;;;;5060651;28;20469;-59
2023/01/13 14:19:54;;;;;;;27.08;2.80;;;;;;;;;;5057721;28;20021;-59
2023/01/13 14:22:19;;;;;;;24.98;3.40;;;;;;;;;;5053553;28;20032;-59
2023/01/13 14:24:46;;;;;;;18.95;2.60;;;;;;;;;;5060173;28;20027;-59
2023/01/13 14:27:15;;;;;;;17.35;2.70;;;;;;;;;;5042880;28;20144;-58
2023/01/13 14:29:40;;;;;;;15.02;2.70;;;;;;;;;;5061013;28;20525;-59
2023/01/13 14:32:06;;;;;;;13.68;2.58;;;;;;;;;;5057848;28;20051;-59
2023/01/13 14:34:31;;;;;;;22.08;2.80;;;;;;;;;;5057849;28;20469;-59
2023/01/13 14:36:57;;;;;;;15.30;2.40;;;;;;;;;;5061676;28;20482;-61
2023/01/13 14:39:25;;;;;;;18.25;2.50;;;;;;;;;;5063366;28;20035;-58
2023/01/13 14:41:52;;;;;;;19.83;2.85;;;;;;;;;;5062939;28;20062;-59
2023/01/13 14:44:20;;;;;;;13.80;2.20;;;;;;;;;;5061429;28;20410;-59
2023/01/13 14:46:45;;;;;;;13.10;2.50;;;;;;;;;;5063664;28;20028;-59
2023/01/13 14:49:23;;;;;;;12.10;2.60;;;;;;;;;;5062031;28;20043;-58
2023/01/13 14:51:48;;;;;;;9.15;1.98;;;;;;;;;;5063320;28;20113;-59
2023/01/13 14:54:32;;;;;;;20.30;2.33;;;;;;;;;;5063898;28;20121;-59
2023/01/13 14:57:13;;;;;;;12.65;2.38;;;;;;;;;;5061282;28;20017;-58
2023/01/13 15:00:02;;;;;;;;;;;;;;;;;;;;;
2023/01/13 15:02:35;;;;;;;14.57;2.40;;;;;;;;;;5052729;28;20028;-59
2023/01/13 15:05:18;;;;;;;14.90;2.72;;;;;;;;;;5063167;28;20039;-59
2023/01/13 15:07:50;;;;;;;26.40;2.95;;;;;;;;;;5061129;28;20063;-59
2023/01/13 15:10:16;;;;;;;19.60;3.60;;;;;;;;;;5060935;28;20037;-60
2023/01/13 15:12:41;;;;;;;22.42;2.85;;;;;;;;;;5062619;28;20305;-59
2023/01/13 15:15:27;;;;;;;16.23;2.53;;;;;;;;;;5060091;28;20521;-59
2023/01/13 15:17:52;;;;;;;13.80;2.80;;;;;;;;;;5058298;28;20550;-59
2023/01/13 15:20:21;;;;;;;21.42;2.28;;;;;;;;;;5062274;28;20025;-59
2023/01/13 15:22:46;;;;;;;20.08;3.45;;;;;;;;;;5061485;28;20033;-59
2023/01/13 15:25:12;;;;;;;22.13;2.50;;;;;;;;;;5060767;28;20020;-59
2023/01/13 15:27:38;;;;;;;27.33;3.08;;;;;;;;;;5063175;28;20036;-59
2023/01/13 15:30:11;;;;;;;25.38;2.70;;;;;;;;;;5058938;28;20045;-59
2023/01/13 15:32:36;;;;;;;27.00;3.25;;;;;;;;;;5062330;28;20021;-59
2023/01/13 15:35:02;;;;;;;19.70;3.80;;;;;;;;;;5063390;28;20047;-59
2023/01/13 15:37:28;;;;;;;16.85;3.03;;;;;;;;;;5062969;28;20424;-59
2023/01/13 15:39:53;;;;;;;18.27;2.70;;;;;;;;;;5062150;28;20756;-59
2023/01/13 15:47:47;;;;;;;22.40;3.25;;;;;;;;;;5065610;28;20027;-59